sensor_id;sensor_type;location;lat;lon;timestamp;P1;durP1;ratioP1;P2;durP2;ratioP2
25649;SDS011;13505;45.196;5.696;2023-04-24T06:02:15;2.05;;;1.58;;
25649;SDS011;13505;45.196;5.696;2023-04-24T06:07:06;5.47;;;1.67;;
25649;SDS011;13505;45.196;5.696;2023-04-24T06:11:56;3.17;;;1.50;;
25649;SDS011;13505;45.196;5.696;2023-04-24T06:16:48;3.70;;;1.70;;
25649;SDS011;13505;45.196;5.696;2023-04-24T06:21:38;10.53;;;2.10;;
25649;SDS011;13505;45.196;5.696;2023-04-24T06:26:28;4.00;;;1.90;;
25649;SDS011;13505;45.196;5.696;2023-04-24T06:31:19;3.50;;;2.00;;
25649;SDS011;13505;45.196;5.696;2023-04-24T06:36:11;5.03;;;2.28;;
25649;SDS011;13505;45.196;5.696;2023-04-24T06:41:02;6.38;;;2.50;;
25649;SDS011;13505;45.196;5.696;2023-04-24T06:45:54;2.75;;;2.50;;
25649;SDS011;13505;45.196;5.696;2023-04-24T06:50:45;5.93;;;3.20;;
25649;SDS011;13505;45.196;5.696;2023-04-24T06:55:36;4.53;;;2.53;;
25649;SDS011;13505;45.196;5.696;2023-04-24T07:00:27;4.25;;;2.20;;
25649;SDS011;13505;45.196;5.696;2023-04-24T07:05:17;3.90;;;1.87;;
25649;SDS011;13505;45.196;5.696;2023-04-24T07:10:09;9.90;;;2.25;;
25649;SDS011;13505;45.196;5.696;2023-04-24T07:15:00;3.45;;;1.40;;
25649;SDS011;13505;45.196;5.696;2023-04-24T07:19:50;2.50;;;1.20;;
25649;SDS011;13505;45.196;5.696;2023-04-24T07:24:41;4.07;;;1.40;;
25649;SDS011;13505;45.196;5.696;2023-04-24T07:29:31;5.13;;;1.73;;
25649;SDS011;13505;45.196;5.696;2023-04-24T07:34:21;2.43;;;1.10;;
25649;SDS011;13505;45.196;5.696;2023-04-24T07:39:12;3.03;;;1.27;;
25649;SDS011;13505;45.196;5.696;2023-04-24T07:44:02;4.30;;;1.30;;
25649;SDS011;13505;45.196;5.696;2023-04-24T07:48:52;2.67;;;1.17;;
25649;SDS011;13505;45.196;5.696;2023-04-24T07:53:43;2.05;;;1.20;;
25649;SDS011;13505;45.196;5.696;2023-04-24T07:58:34;3.92;;;1.00;;
25649;SDS011;13505;45.196;5.696;2023-04-24T08:03:24;2.40;;;1.15;;
25649;SDS011;13505;45.196;5.696;2023-04-24T08:08:15;1.67;;;1.02;;
25649;SDS011;13505;45.196;5.696;2023-04-24T08:13:05;1.65;;;1.05;;
25649;SDS011;13505;45.196;5.696;2023-04-24T08:17:56;2.17;;;1.30;;
25649;SDS011;13505;45.196;5.696;2023-04-24T08:22:47;6.72;;;1.40;;
25649;SDS011;13505;45.196;5.696;2023-04-24T08:27:38;1.25;;;1.10;;
25649;SDS011;13505;45.196;5.696;2023-04-24T08:32:29;3.15;;;1.15;;
25649;SDS011;13505;45.196;5.696;2023-04-24T08:37:19;2.90;;;1.30;;
25649;SDS011;13505;45.196;5.696;2023-04-24T08:42:10;3.78;;;1.33;;
25649;SDS011;13505;45.196;5.696;2023-04-24T08:47:01;2.58;;;1.23;;
25649;SDS011;13505;45.196;5.696;2023-04-24T08:51:52;2.58;;;1.38;;
25649;SDS011;13505;45.196;5.696;2023-04-24T08:56:43;1.75;;;1.33;;
25649;SDS011;13505;45.196;5.696;2023-04-24T09:01:34;6.88;;;1.67;;
25649;SDS011;13505;45.196;5.696;2023-04-24T09:06:27;5.18;;;1.35;;
25649;SDS011;13505;45.196;5.696;2023-04-24T09:11:18;2.65;;;1.20;;
25649;SDS011;13505;45.196;5.696;2023-04-24T09:16:09;2.53;;;1.30;;
25649;SDS011;13505;45.196;5.696;2023-04-24T09:21:03;2.83;;;1.20;;
25649;SDS011;13505;45.196;5.696;2023-04-24T09:25:57;2.78;;;1.25;;
25649;SDS011;13505;45.196;5.696;2023-04-24T09:31:01;4.47;;;1.45;;
25649;SDS011;13505;45.196;5.696;2023-04-24T09:36:12;2.72;;;1.40;;
25649;SDS011;13505;45.196;5.696;2023-04-24T09:41:04;1.83;;;1.20;;
25649;SDS011;13505;45.196;5.696;2023-04-24T09:45:57;1.77;;;1.20;;
25649;SDS011;13505;45.196;5.696;2023-04-24T09:50:49;2.30;;;1.10;;
25649;SDS011;13505;45.196;5.696;2023-04-24T09:55:44;3.47;;;1.30;;
25649;SDS011;13505;45.196;5.696;2023-04-24T10:00:36;4.25;;;1.52;;
25649;SDS011;13505;45.196;5.696;2023-04-24T10:05:27;7.80;;;1.60;;
25649;SDS011;13505;45.196;5.696;2023-04-24T10:10:22;2.78;;;1.50;;
25649;SDS011;13505;45.196;5.696;2023-04-24T10:15:12;2.75;;;1.35;;
25649;SDS011;13505;45.196;5.696;2023-04-24T10:20:04;2.65;;;1.25;;
25649;SDS011;13505;45.196;5.696;2023-04-24T10:24:56;2.20;;;1.23;;
25649;SDS011;13505;45.196;5.696;2023-04-24T10:29:47;1.52;;;1.00;;
25649;SDS011;13505;45.196;5.696;2023-04-24T10:34:41;1.67;;;1.08;;
25649;SDS011;13505;45.196;5.696;2023-04-24T10:39:32;5.05;;;1.58;;
25649;SDS011;13505;45.196;5.696;2023-04-24T10:44:23;2.95;;;1.10;;
25649;SDS011;13505;45.196;5.696;2023-04-24T10:49:14;2.67;;;0.90;;
25649;SDS011;13505;45.196;5.696;2023-04-24T10:54:21;2.72;;;1.00;;
25649;SDS011;13505;45.196;5.696;2023-04-24T10:59:24;3.22;;;1.10;;
25649;SDS011;13505;45.196;5.696;2023-04-24T11:04:22;1.25;;;0.95;;
25649;SDS011;13505;45.196;5.696;2023-04-24T11:09:25;2.90;;;1.10;;
25649;SDS011;13505;45.196;5.696;2023-04-24T11:14:26;3.38;;;0.95;;
25649;SDS011;13505;45.196;5.696;2023-04-24T11:29:15;1.33;;;0.70;;
25649;SDS011;13505;45.196;5.696;2023-04-24T11:34:12;2.80;;;1.05;;
25649;SDS011;13505;45.196;5.696;2023-04-24T11:39:04;2.55;;;1.00;;
25649;SDS011;13505;45.196;5.696;2023-04-24T11:43:54;2.85;;;0.85;;
25649;SDS011;13505;45.196;5.696;2023-04-24T11:48:45;6.35;;;1.35;;
25649;SDS011;13505;45.196;5.696;2023-04-24T11:53:36;1.88;;;0.98;;
25649;SDS011;13505;45.196;5.696;2023-04-24T11:58:26;2.72;;;1.00;;
25649;SDS011;13505;45.196;5.696;2023-04-24T12:03:17;3.42;;;0.90;;
25649;SDS011;13505;45.196;5.696;2023-04-24T12:08:07;3.67;;;1.00;;
25649;SDS011;13505;45.196;5.696;2023-04-24T12:12:58;1.92;;;0.80;;
25649;SDS011;13505;45.196;5.696;2023-04-24T12:17:50;2.95;;;0.80;;
25649;SDS011;13505;45.196;5.696;2023-04-24T12:22:43;2.05;;;0.80;;
25649;SDS011;13505;45.196;5.696;2023-04-24T12:27:35;1.02;;;0.80;;
25649;SDS011;13505;45.196;5.696;2023-04-24T12:32:25;3.40;;;1.13;;
25649;SDS011;13505;45.196;5.696;2023-04-24T12:37:16;0.95;;;0.70;;
25649;SDS011;13505;45.196;5.696;2023-04-24T12:42:06;2.00;;;0.87;;
25649;SDS011;13505;45.196;5.696;2023-04-24T12:46:56;2.77;;;0.80;;
25649;SDS011;13505;45.196;5.696;2023-04-24T12:51:47;1.85;;;0.75;;
25649;SDS011;13505;45.196;5.696;2023-04-24T12:56:37;2.47;;;0.90;;
25649;SDS011;13505;45.196;5.696;2023-04-24T13:01:29;1.30;;;0.88;;
25649;SDS011;13505;45.196;5.696;2023-04-24T13:06:19;1.50;;;0.67;;
25649;SDS011;13505;45.196;5.696;2023-04-24T13:11:10;2.05;;;0.90;;
25649;SDS011;13505;45.196;5.696;2023-04-24T13:16:01;1.95;;;0.90;;
25649;SDS011;13505;45.196;5.696;2023-04-24T13:20:51;1.50;;;1.00;;
25649;SDS011;13505;45.196;5.696;2023-04-24T13:25:42;4.85;;;1.23;;
25649;SDS011;13505;45.196;5.696;2023-04-24T13:30:32;4.27;;;0.97;;
25649;SDS011;13505;45.196;5.696;2023-04-24T13:35:23;1.92;;;1.10;;
25649;SDS011;13505;45.196;5.696;2023-04-24T13:40:13;1.63;;;1.10;;
25649;SDS011;13505;45.196;5.696;2023-04-24T13:45:04;5.53;;;1.02;;
25649;SDS011;13505;45.196;5.696;2023-04-24T13:49:55;1.67;;;0.90;;
25649;SDS011;13505;45.196;5.696;2023-04-24T13:54:45;2.63;;;1.20;;
25649;SDS011;13505;45.196;5.696;2023-04-24T13:59:35;1.83;;;0.90;;
25649;SDS011;13505;45.196;5.696;2023-04-24T14:04:27;0.93;;;0.80;;
25649;SDS011;13505;45.196;5.696;2023-04-24T14:09:17;1.53;;;0.90;;
25649;SDS011;13505;45.196;5.696;2023-04-24T14:14:07;1.35;;;0.90;;
25649;SDS011;13505;45.196;5.696;2023-04-24T14:18:58;2.05;;;1.15;;
25649;SDS011;13505;45.196;5.696;2023-04-24T14:23:48;12.63;;;2.40;;
25649;SDS011;13505;45.196;5.696;2023-04-24T14:28:39;1.67;;;0.90;;
25649;SDS011;13505;45.196;5.696;2023-04-24T14:33:29;1.92;;;1.02;;
25649;SDS011;13505;45.196;5.696;2023-04-24T14:38:20;5.07;;;1.10;;
25649;SDS011;13505;45.196;5.696;2023-04-24T14:43:10;3.05;;;1.40;;
25649;SDS011;13505;45.196;5.696;2023-04-24T14:48:01;1.10;;;0.80;;
25649;SDS011;13505;45.196;5.696;2023-04-24T14:52:51;2.13;;;1.20;;
25649;SDS011;13505;45.196;5.696;2023-04-24T14:57:41;1.80;;;1.00;;
25649;SDS011;13505;45.196;5.696;2023-04-24T15:02:32;1.92;;;0.90;;
25649;SDS011;13505;45.196;5.696;2023-04-24T15:07:23;2.05;;;0.80;;
25649;SDS011;13505;45.196;5.696;2023-04-24T15:12:13;3.10;;;1.23;;
25649;SDS011;13505;45.196;5.696;2023-04-24T15:17:04;1.85;;;1.00;;
25649;SDS011;13505;45.196;5.696;2023-04-24T15:21:54;2.47;;;1.15;;
25649;SDS011;13505;45.196;5.696;2023-04-24T15:26:45;4.53;;;1.40;;
25649;SDS011;13505;45.196;5.696;2023-04-24T15:31:35;1.80;;;1.00;;
25649;SDS011;13505;45.196;5.696;2023-04-24T15:36:29;3.72;;;0.93;;
25649;SDS011;13505;45.196;5.696;2023-04-24T15:41:19;2.22;;;1.35;;
25649;SDS011;13505;45.196;5.696;2023-04-24T15:46:11;1.85;;;1.08;;
25649;SDS011;13505;45.196;5.696;2023-04-24T15:51:01;3.58;;;1.20;;
25649;SDS011;13505;45.196;5.696;2023-04-24T15:55:51;2.50;;;0.90;;
25649;SDS011;13505;45.196;5.696;2023-04-24T16:00:42;1.67;;;1.02;;
25649;SDS011;13505;45.196;5.696;2023-04-24T16:05:33;2.00;;;1.10;;
25649;SDS011;13505;45.196;5.696;2023-04-24T16:10:23;2.88;;;1.10;;
25649;SDS011;13505;45.196;5.696;2023-04-24T16:15:14;2.80;;;1.13;;
25649;SDS011;13505;45.196;5.696;2023-04-24T16:20:04;3.70;;;1.10;;
25649;SDS011;13505;45.196;5.696;2023-04-24T16:24:56;2.88;;;1.17;;
25649;SDS011;13505;45.196;5.696;2023-04-24T16:29:47;3.25;;;1.30;;
25649;SDS011;13505;45.196;5.696;2023-04-24T16:34:37;1.42;;;1.05;;
25649;SDS011;13505;45.196;5.696;2023-04-24T16:39:28;1.38;;;0.80;;
25649;SDS011;13505;45.196;5.696;2023-04-24T16:44:18;4.73;;;1.30;;
25649;SDS011;13505;45.196;5.696;2023-04-24T16:49:09;4.95;;;1.08;;
25649;SDS011;13505;45.196;5.696;2023-04-24T16:54:00;2.33;;;1.38;;
25649;SDS011;13505;45.196;5.696;2023-04-24T16:58:50;2.97;;;1.55;;
25649;SDS011;13505;45.196;5.696;2023-04-24T17:03:40;3.53;;;1.50;;
25649;SDS011;13505;45.196;5.696;2023-04-24T17:08:31;4.38;;;1.20;;
25649;SDS011;13505;45.196;5.696;2023-04-24T17:13:23;4.10;;;1.30;;
25649;SDS011;13505;45.196;5.696;2023-04-24T17:18:13;1.42;;;1.15;;
25649;SDS011;13505;45.196;5.696;2023-04-24T17:23:03;1.40;;;1.30;;
25649;SDS011;13505;45.196;5.696;2023-04-24T17:27:56;1.48;;;1.20;;
25649;SDS011;13505;45.196;5.696;2023-04-24T17:32:46;2.38;;;1.75;;
25649;SDS011;13505;45.196;5.696;2023-04-24T17:37:37;2.70;;;1.53;;
25649;SDS011;13505;45.196;5.696;2023-04-24T17:42:27;3.13;;;1.42;;
25649;SDS011;13505;45.196;5.696;2023-04-24T17:47:18;2.33;;;1.23;;
25649;SDS011;13505;45.196;5.696;2023-04-24T17:52:12;2.13;;;1.40;;
25649;SDS011;13505;45.196;5.696;2023-04-24T17:57:04;1.90;;;1.20;;
